sensor_id;sensor_type;location;lat;lon;timestamp;P1;durP1;ratioP1;P2;durP2;ratioP2
13457;SDS011;6801;53.018;11.560;2022-09-09T00:02:12;9.80;;;6.63;;
13457;SDS011;6801;53.018;11.560;2022-09-09T00:04:45;15.65;;;7.13;;
13457;SDS011;6801;53.018;11.560;2022-09-09T00:07:25;15.93;;;7.93;;
13457;SDS011;6801;53.018;11.560;2022-09-09T00:10:05;13.20;;;6.13;;
13457;SDS011;6801;53.018;11.560;2022-09-09T00:12:42;14.90;;;5.72;;
13457;SDS011;6801;53.018;11.560;2022-09-09T00:15:18;8.40;;;7.00;;
13457;SDS011;6801;53.018;11.560;2022-09-09T00:17:48;9.90;;;7.70;;
13457;SDS011;6801;53.018;11.560;2022-09-09T00:20:24;9.45;;;5.95;;
13457;SDS011;6801;53.018;11.560;2022-09-09T00:22:57;13.32;;;8.00;;
13457;SDS011;6801;53.018;11.560;2022-09-09T00:25:33;10.10;;;7.57;;
13457;SDS011;6801;53.018;11.560;2022-09-09T00:28:08;12.20;;;7.90;;
13457;SDS011;6801;53.018;11.560;2022-09-09T00:30:44;8.13;;;5.65;;
13457;SDS011;6801;53.018;11.560;2022-09-09T00:33:13;10.75;;;6.97;;
13457;SDS011;6801;53.018;11.560;2022-09-09T00:35:46;9.98;;;5.85;;
13457;SDS011;6801;53.018;11.560;2022-09-09T00:38:16;10.85;;;7.93;;
13457;SDS011;6801;53.018;11.560;2022-09-09T00:40:49;10.75;;;7.30;;
13457;SDS011;6801;53.018;11.560;2022-09-09T00:43:21;8.57;;;6.43;;
13457;SDS011;6801;53.018;11.560;2022-09-09T00:49:15;11.15;;;7.13;;
13457;SDS011;6801;53.018;11.560;2022-09-09T00:51:51;6.65;;;5.07;;
13457;SDS011;6801;53.018;11.560;2022-09-09T00:54:28;10.35;;;6.32;;
13457;SDS011;6801;53.018;11.560;2022-09-09T00:57:04;29.38;;;7.43;;
13457;SDS011;6801;53.018;11.560;2022-09-09T00:59:42;26.85;;;7.32;;
13457;SDS011;6801;53.018;11.560;2022-09-09T01:02:17;22.98;;;8.32;;
13457;SDS011;6801;53.018;11.560;2022-09-09T01:04:54;18.20;;;8.20;;
13457;SDS011;6801;53.018;11.560;2022-09-09T01:07:26;16.50;;;7.68;;
13457;SDS011;6801;53.018;11.560;2022-09-09T01:09:55;10.98;;;8.50;;
13457;SDS011;6801;53.018;11.560;2022-09-09T01:12:25;11.10;;;6.78;;
13457;SDS011;6801;53.018;11.560;2022-09-09T01:15:03;15.48;;;8.20;;
13457;SDS011;6801;53.018;11.560;2022-09-09T01:17:46;12.80;;;6.40;;
13457;SDS011;6801;53.018;11.560;2022-09-09T01:20:19;19.90;;;6.57;;
13457;SDS011;6801;53.018;11.560;2022-09-09T01:23:04;25.85;;;7.45;;
13457;SDS011;6801;53.018;11.560;2022-09-09T01:26:11;25.35;;;7.05;;
13457;SDS011;6801;53.018;11.560;2022-09-09T01:28:43;15.48;;;6.57;;
13457;SDS011;6801;53.018;11.560;2022-09-09T01:31:15;6.30;;;3.13;;
13457;SDS011;6801;53.018;11.560;2022-09-09T01:33:46;12.02;;;5.22;;
13457;SDS011;6801;53.018;11.560;2022-09-09T01:36:15;11.30;;;5.32;;
13457;SDS011;6801;53.018;11.560;2022-09-09T01:38:50;19.27;;;6.43;;
13457;SDS011;6801;53.018;11.560;2022-09-09T01:41:19;18.05;;;5.88;;
13457;SDS011;6801;53.018;11.560;2022-09-09T01:43:54;8.52;;;4.60;;
13457;SDS011;6801;53.018;11.560;2022-09-09T01:46:24;17.98;;;5.47;;
13457;SDS011;6801;53.018;11.560;2022-09-09T01:48:52;14.93;;;5.05;;
13457;SDS011;6801;53.018;11.560;2022-09-09T01:51:21;12.63;;;5.70;;
13457;SDS011;6801;53.018;11.560;2022-09-09T01:53:49;12.77;;;5.45;;
13457;SDS011;6801;53.018;11.560;2022-09-09T01:56:21;16.25;;;5.65;;
13457;SDS011;6801;53.018;11.560;2022-09-09T01:59:02;8.82;;;5.68;;
13457;SDS011;6801;53.018;11.560;2022-09-09T02:04:17;10.15;;;5.97;;
13457;SDS011;6801;53.018;11.560;2022-09-09T02:06:53;12.80;;;3.92;;
13457;SDS011;6801;53.018;11.560;2022-09-09T02:09:27;7.28;;;4.63;;
13457;SDS011;6801;53.018;11.560;2022-09-09T02:11:59;6.45;;;4.43;;
13457;SDS011;6801;53.018;11.560;2022-09-09T02:14:46;9.93;;;5.70;;
13457;SDS011;6801;53.018;11.560;2022-09-09T02:17:18;16.70;;;5.47;;
13457;SDS011;6801;53.018;11.560;2022-09-09T02:20:03;8.98;;;5.32;;
13457;SDS011;6801;53.018;11.560;2022-09-09T02:22:41;7.18;;;3.67;;
13457;SDS011;6801;53.018;11.560;2022-09-09T02:25:13;5.07;;;3.60;;
13457;SDS011;6801;53.018;11.560;2022-09-09T02:27:45;8.18;;;3.90;;
13457;SDS011;6801;53.018;11.560;2022-09-09T02:30:14;13.80;;;4.80;;
13457;SDS011;6801;53.018;11.560;2022-09-09T02:32:48;16.88;;;4.90;;
13457;SDS011;6801;53.018;11.560;2022-09-09T02:35:24;11.85;;;5.38;;
13457;SDS011;6801;53.018;11.560;2022-09-09T02:37:53;8.40;;;4.80;;
13457;SDS011;6801;53.018;11.560;2022-09-09T02:40:24;12.82;;;4.93;;
13457;SDS011;6801;53.018;11.560;2022-09-09T02:42:59;9.73;;;5.13;;
13457;SDS011;6801;53.018;11.560;2022-09-09T02:45:31;6.85;;;4.00;;
13457;SDS011;6801;53.018;11.560;2022-09-09T02:48:12;7.18;;;4.05;;
13457;SDS011;6801;53.018;11.560;2022-09-09T02:50:47;15.15;;;5.75;;
13457;SDS011;6801;53.018;11.560;2022-09-09T02:53:23;11.77;;;3.42;;
13457;SDS011;6801;53.018;11.560;2022-09-09T02:55:56;17.42;;;4.13;;
13457;SDS011;6801;53.018;11.560;2022-09-09T02:58:32;15.60;;;5.05;;
13457;SDS011;6801;53.018;11.560;2022-09-09T03:01:03;13.88;;;4.65;;
13457;SDS011;6801;53.018;11.560;2022-09-09T03:03:30;21.80;;;5.65;;
13457;SDS011;6801;53.018;11.560;2022-09-09T03:06:02;10.18;;;3.42;;
13457;SDS011;6801;53.018;11.560;2022-09-09T03:08:30;5.95;;;3.10;;
13457;SDS011;6801;53.018;11.560;2022-09-09T03:10:59;17.52;;;3.55;;
13457;SDS011;6801;53.018;11.560;2022-09-09T03:13:30;9.48;;;3.45;;
13457;SDS011;6801;53.018;11.560;2022-09-09T03:15:59;24.55;;;4.53;;
13457;SDS011;6801;53.018;11.560;2022-09-09T03:18:29;23.58;;;4.00;;
13457;SDS011;6801;53.018;11.560;2022-09-09T03:20:57;28.48;;;4.13;;
13457;SDS011;6801;53.018;11.560;2022-09-09T03:23:25;16.13;;;3.75;;
13457;SDS011;6801;53.018;11.560;2022-09-09T03:25:52;12.82;;;3.25;;
13457;SDS011;6801;53.018;11.560;2022-09-09T03:28:28;19.20;;;3.97;;
13457;SDS011;6801;53.018;11.560;2022-09-09T03:31:00;11.73;;;2.35;;
13457;SDS011;6801;53.018;11.560;2022-09-09T03:33:30;11.32;;;2.65;;
13457;SDS011;6801;53.018;11.560;2022-09-09T03:35:59;16.73;;;3.40;;
13457;SDS011;6801;53.018;11.560;2022-09-09T03:38:28;24.10;;;4.45;;
13457;SDS011;6801;53.018;11.560;2022-09-09T03:40:56;11.15;;;3.60;;
13457;SDS011;6801;53.018;11.560;2022-09-09T03:43:25;19.85;;;4.93;;
13457;SDS011;6801;53.018;11.560;2022-09-09T03:45:52;15.90;;;3.90;;
13457;SDS011;6801;53.018;11.560;2022-09-09T03:50:53;15.48;;;3.15;;
13457;SDS011;6801;53.018;11.560;2022-09-09T03:53:23;29.42;;;4.68;;
13457;SDS011;6801;53.018;11.560;2022-09-09T03:55:52;11.93;;;4.25;;
13457;SDS011;6801;53.018;11.560;2022-09-09T03:58:22;24.33;;;5.07;;
13457;SDS011;6801;53.018;11.560;2022-09-09T04:00:53;31.00;;;5.15;;
13457;SDS011;6801;53.018;11.560;2022-09-09T04:03:21;16.75;;;4.78;;
13457;SDS011;6801;53.018;11.560;2022-09-09T04:05:51;15.60;;;4.32;;
13457;SDS011;6801;53.018;11.560;2022-09-09T04:08:19;13.88;;;4.28;;
13457;SDS011;6801;53.018;11.560;2022-09-09T04:10:48;14.00;;;3.92;;
13457;SDS011;6801;53.018;11.560;2022-09-09T04:13:17;25.50;;;4.72;;
13457;SDS011;6801;53.018;11.560;2022-09-09T04:15:50;21.60;;;4.80;;
13457;SDS011;6801;53.018;11.560;2022-09-09T04:18:18;23.35;;;3.97;;
13457;SDS011;6801;53.018;11.560;2022-09-09T04:20:47;47.50;;;5.40;;
13457;SDS011;6801;53.018;11.560;2022-09-09T04:23:17;29.88;;;3.28;;
13457;SDS011;6801;53.018;11.560;2022-09-09T04:25:45;27.13;;;3.17;;
13457;SDS011;6801;53.018;11.560;2022-09-09T04:28:13;33.97;;;2.92;;
13457;SDS011;6801;53.018;11.560;2022-09-09T04:30:42;35.83;;;3.30;;
13457;SDS011;6801;53.018;11.560;2022-09-09T04:33:09;8.63;;;3.08;;
13457;SDS011;6801;53.018;11.560;2022-09-09T04:35:37;20.92;;;2.92;;
13457;SDS011;6801;53.018;11.560;2022-09-09T04:38:05;21.10;;;3.10;;
13457;SDS011;6801;53.018;11.560;2022-09-09T04:40:35;17.35;;;3.70;;
13457;SDS011;6801;53.018;11.560;2022-09-09T04:43:08;18.50;;;3.67;;
13457;SDS011;6801;53.018;11.560;2022-09-09T04:45:36;10.05;;;2.92;;
13457;SDS011;6801;53.018;11.560;2022-09-09T04:48:03;19.25;;;3.53;;
13457;SDS011;6801;53.018;11.560;2022-09-09T04:50:30;10.07;;;3.33;;
13457;SDS011;6801;53.018;11.560;2022-09-09T04:52:59;10.00;;;3.60;;
13457;SDS011;6801;53.018;11.560;2022-09-09T04:55:28;5.70;;;3.35;;
13457;SDS011;6801;53.018;11.560;2022-09-09T04:57:56;4.38;;;3.58;;
13457;SDS011;6801;53.018;11.560;2022-09-09T05:00:23;6.03;;;3.53;;
13457;SDS011;6801;53.018;11.560;2022-09-09T05:02:51;5.82;;;3.80;;
13457;SDS011;6801;53.018;11.560;2022-09-09T05:05:18;6.85;;;4.07;;
13457;SDS011;6801;53.018;11.560;2022-09-09T05:07:47;5.10;;;3.88;;
13457;SDS011;6801;53.018;11.560;2022-09-09T05:10:14;6.32;;;4.68;;
13457;SDS011;6801;53.018;11.560;2022-09-09T05:12:51;5.05;;;3.83;;
13457;SDS011;6801;53.018;11.560;2022-09-09T05:15:20;3.90;;;3.20;;
13457;SDS011;6801;53.018;11.560;2022-09-09T05:17:47;5.43;;;4.32;;
13457;SDS011;6801;53.018;11.560;2022-09-09T05:20:16;8.20;;;4.53;;
13457;SDS011;6801;53.018;11.560;2022-09-09T05:22:43;6.05;;;4.68;;
13457;SDS011;6801;53.018;11.560;2022-09-09T05:25:10;6.90;;;4.30;;
13457;SDS011;6801;53.018;11.560;2022-09-09T05:27:38;6.38;;;4.63;;
13457;SDS011;6801;53.018;11.560;2022-09-09T05:30:06;6.28;;;4.32;;
13457;SDS011;6801;53.018;11.560;2022-09-09T05:32:35;11.52;;;5.20;;
13457;SDS011;6801;53.018;11.560;2022-09-09T05:35:02;8.27;;;4.63;;
13457;SDS011;6801;53.018;11.560;2022-09-09T05:37:30;6.47;;;5.20;;
13457;SDS011;6801;53.018;11.560;2022-09-09T05:39:57;11.02;;;4.85;;
13457;SDS011;6801;53.018;11.560;2022-09-09T05:42:29;5.60;;;4.28;;
13457;SDS011;6801;53.018;11.560;2022-09-09T05:44:57;6.15;;;4.85;;
13457;SDS011;6801;53.018;11.560;2022-09-09T05:47:24;6.43;;;4.60;;
13457;SDS011;6801;53.018;11.560;2022-09-09T05:49:54;7.53;;;5.03;;
13457;SDS011;6801;53.018;11.560;2022-09-09T05:52:22;6.45;;;4.15;;
13457;SDS011;6801;53.018;11.560;2022-09-09T05:54:51;7.72;;;4.57;;
13457;SDS011;6801;53.018;11.560;2022-09-09T05:57:20;7.43;;;4.22;;
13457;SDS011;6801;53.018;11.560;2022-09-09T05:59:47;7.18;;;5.10;;
13457;SDS011;6801;53.018;11.560;2022-09-09T06:02:15;7.65;;;6.03;;
13457;SDS011;6801;53.018;11.560;2022-09-09T06:04:41;10.32;;;5.13;;
13457;SDS011;6801;53.018;11.560;2022-09-09T06:07:12;6.60;;;5.07;;
13457;SDS011;6801;53.018;11.560;2022-09-09T06:09:40;5.63;;;4.53;;
13457;SDS011;6801;53.018;11.560;2022-09-09T06:12:07;6.55;;;4.95;;
13457;SDS011;6801;53.018;11.560;2022-09-09T06:14:35;7.00;;;4.50;;
13457;SDS011;6801;53.018;11.560;2022-09-09T06:17:03;7.30;;;4.80;;
13457;SDS011;6801;53.018;11.560;2022-09-09T06:19:30;5.88;;;4.40;;
13457;SDS011;6801;53.018;11.560;2022-09-09T06:21:58;7.80;;;4.75;;
13457;SDS011;6801;53.018;11.560;2022-09-09T06:24:28;12.70;;;5.95;;
13457;SDS011;6801;53.018;11.560;2022-09-09T06:26:56;5.50;;;3.88;;
13457;SDS011;6801;53.018;11.560;2022-09-09T06:29:27;8.77;;;5.55;;
13457;SDS011;6801;53.018;11.560;2022-09-09T06:31:54;9.82;;;6.13;;
13457;SDS011;6801;53.018;11.560;2022-09-09T06:34:23;9.95;;;6.07;;
13457;SDS011;6801;53.018;11.560;2022-09-09T06:36:54;10.80;;;7.45;;
13457;SDS011;6801;53.018;11.560;2022-09-09T06:39:22;6.65;;;5.32;;
13457;SDS011;6801;53.018;11.560;2022-09-09T06:41:51;7.88;;;5.40;;
13457;SDS011;6801;53.018;11.560;2022-09-09T06:44:38;6.32;;;3.92;;
13457;SDS011;6801;53.018;11.560;2022-09-09T06:47:09;7.65;;;5.70;;
13457;SDS011;6801;53.018;11.560;2022-09-09T06:49:38;7.93;;;5.28;;
13457;SDS011;6801;53.018;11.560;2022-09-09T06:52:07;7.15;;;5.18;;
13457;SDS011;6801;53.018;11.560;2022-09-09T06:54:34;7.15;;;4.97;;
13457;SDS011;6801;53.018;11.560;2022-09-09T06:57:04;7.90;;;5.03;;
13457;SDS011;6801;53.018;11.560;2022-09-09T06:59:32;6.90;;;5.20;;
13457;SDS011;6801;53.018;11.560;2022-09-09T07:01:59;5.75;;;4.10;;
13457;SDS011;6801;53.018;11.560;2022-09-09T07:04:27;8.07;;;4.28;;
13457;SDS011;6801;53.018;11.560;2022-09-09T07:06:55;8.30;;;4.35;;
13457;SDS011;6801;53.018;11.560;2022-09-09T07:09:24;10.55;;;5.47;;
13457;SDS011;6801;53.018;11.560;2022-09-09T07:11:52;7.28;;;4.57;;
13457;SDS011;6801;53.018;11.560;2022-09-09T07:14:23;8.35;;;5.20;;
13457;SDS011;6801;53.018;11.560;2022-09-09T07:16:54;7.78;;;5.13;;
13457;SDS011;6801;53.018;11.560;2022-09-09T07:19:21;11.48;;;5.45;;
13457;SDS011;6801;53.018;11.560;2022-09-09T07:21:51;7.00;;;4.45;;
13457;SDS011;6801;53.018;11.560;2022-09-09T07:24:20;5.53;;;3.77;;
13457;SDS011;6801;53.018;11.560;2022-09-09T07:26:47;5.63;;;3.92;;
13457;SDS011;6801;53.018;11.560;2022-09-09T07:29:15;7.40;;;4.53;;
13457;SDS011;6801;53.018;11.560;2022-09-09T07:31:44;7.97;;;4.22;;
13457;SDS011;6801;53.018;11.560;2022-09-09T07:34:15;8.23;;;4.57;;
13457;SDS011;6801;53.018;11.560;2022-09-09T07:36:43;6.85;;;3.95;;
13457;SDS011;6801;53.018;11.560;2022-09-09T07:39:12;7.70;;;4.25;;
13457;SDS011;6801;53.018;11.560;2022-09-09T07:41:45;5.80;;;3.67;;
13457;SDS011;6801;53.018;11.560;2022-09-09T07:44:16;7.22;;;3.65;;
13457;SDS011;6801;53.018;11.560;2022-09-09T07:46:49;9.75;;;3.90;;
13457;SDS011;6801;53.018;11.560;2022-09-09T07:49:21;6.30;;;4.03;;
13457;SDS011;6801;53.018;11.560;2022-09-09T07:51:49;6.30;;;3.35;;
13457;SDS011;6801;53.018;11.560;2022-09-09T07:54:17;7.65;;;4.40;;
13457;SDS011;6801;53.018;11.560;2022-09-09T07:56:49;7.90;;;4.05;;
13457;SDS011;6801;53.018;11.560;2022-09-09T07:59:17;5.88;;;3.80;;
13457;SDS011;6801;53.018;11.560;2022-09-09T08:01:47;9.27;;;3.72;;
13457;SDS011;6801;53.018;11.560;2022-09-09T08:04:19;6.07;;;3.10;;
13457;SDS011;6801;53.018;11.560;2022-09-09T08:06:48;6.93;;;3.72;;
13457;SDS011;6801;53.018;11.560;2022-09-09T08:09:17;6.95;;;2.88;;
13457;SDS011;6801;53.018;11.560;2022-09-09T08:11:46;7.20;;;3.10;;
13457;SDS011;6801;53.018;11.560;2022-09-09T08:14:14;6.55;;;2.60;;
13457;SDS011;6801;53.018;11.560;2022-09-09T08:16:41;4.68;;;2.03;;
13457;SDS011;6801;53.018;11.560;2022-09-09T08:19:13;5.72;;;2.28;;
13457;SDS011;6801;53.018;11.560;2022-09-09T08:21:41;5.53;;;2.05;;
13457;SDS011;6801;53.018;11.560;2022-09-09T08:24:10;6.78;;;2.38;;
13457;SDS011;6801;53.018;11.560;2022-09-09T08:26:40;3.80;;;1.63;;
13457;SDS011;6801;53.018;11.560;2022-09-09T08:29:09;4.10;;;1.70;;
13457;SDS011;6801;53.018;11.560;2022-09-09T08:31:39;5.87;;;1.40;;
13457;SDS011;6801;53.018;11.560;2022-09-09T08:34:07;6.05;;;1.80;;
13457;SDS011;6801;53.018;11.560;2022-09-09T08:36:38;5.80;;;1.75;;
13457;SDS011;6801;53.018;11.560;2022-09-09T08:39:08;7.90;;;1.98;;
13457;SDS011;6801;53.018;11.560;2022-09-09T08:41:55;4.57;;;1.63;;
13457;SDS011;6801;53.018;11.560;2022-09-09T08:44:38;3.30;;;1.40;;
13457;SDS011;6801;53.018;11.560;2022-09-09T08:47:19;4.22;;;2.15;;
13457;SDS011;6801;53.018;11.560;2022-09-09T08:49:59;6.45;;;1.73;;
13457;SDS011;6801;53.018;11.560;2022-09-09T08:52:37;6.22;;;1.58;;
13457;SDS011;6801;53.018;11.560;2022-09-09T08:55:12;3.47;;;1.50;;
13457;SDS011;6801;53.018;11.560;2022-09-09T08:57:47;4.10;;;1.33;;
13457;SDS011;6801;53.018;11.560;2022-09-09T09:00:17;3.75;;;1.45;;
13457;SDS011;6801;53.018;11.560;2022-09-09T09:02:46;6.53;;;1.83;;
13457;SDS011;6801;53.018;11.560;2022-09-09T09:05:23;6.30;;;1.73;;
13457;SDS011;6801;53.018;11.560;2022-09-09T09:08:01;4.20;;;1.13;;
13457;SDS011;6801;53.018;11.560;2022-09-09T09:10:38;5.47;;;1.20;;
13457;SDS011;6801;53.018;11.560;2022-09-09T09:13:15;3.53;;;0.90;;
13457;SDS011;6801;53.018;11.560;2022-09-09T09:15:47;4.10;;;1.25;;
13457;SDS011;6801;53.018;11.560;2022-09-09T09:18:18;4.45;;;1.17;;
13457;SDS011;6801;53.018;11.560;2022-09-09T09:20:50;4.10;;;1.13;;
13457;SDS011;6801;53.018;11.560;2022-09-09T09:23:24;4.47;;;1.75;;
13457;SDS011;6801;53.018;11.560;2022-09-09T09:25:56;2.10;;;1.00;;
13457;SDS011;6801;53.018;11.560;2022-09-09T09:28:29;3.83;;;1.10;;
13457;SDS011;6801;53.018;11.560;2022-09-09T09:31:05;2.17;;;0.90;;
13457;SDS011;6801;53.018;11.560;2022-09-09T09:33:38;6.30;;;1.00;;
13457;SDS011;6801;53.018;11.560;2022-09-09T09:36:13;3.85;;;1.00;;
13457;SDS011;6801;53.018;11.560;2022-09-09T09:38:53;3.05;;;1.02;;
13457;SDS011;6801;53.018;11.560;2022-09-09T09:41:29;6.18;;;1.08;;
13457;SDS011;6801;53.018;11.560;2022-09-09T09:43:57;3.83;;;1.02;;
13457;SDS011;6801;53.018;11.560;2022-09-09T09:46:27;3.65;;;1.02;;
13457;SDS011;6801;53.018;11.560;2022-09-09T09:49:09;3.63;;;1.13;;
13457;SDS011;6801;53.018;11.560;2022-09-09T09:51:37;4.72;;;1.25;;
13457;SDS011;6801;53.018;11.560;2022-09-09T09:54:09;6.68;;;1.20;;
13457;SDS011;6801;53.018;11.560;2022-09-09T09:56:48;2.72;;;0.95;;
13457;SDS011;6801;53.018;11.560;2022-09-09T09:59:21;2.22;;;1.05;;
13457;SDS011;6801;53.018;11.560;2022-09-09T10:02:05;2.35;;;0.75;;
13457;SDS011;6801;53.018;11.560;2022-09-09T10:04:40;5.15;;;0.93;;
13457;SDS011;6801;53.018;11.560;2022-09-09T10:07:09;3.28;;;0.90;;
13457;SDS011;6801;53.018;11.560;2022-09-09T10:09:39;3.85;;;1.13;;
13457;SDS011;6801;53.018;11.560;2022-09-09T10:12:09;2.83;;;0.90;;
13457;SDS011;6801;53.018;11.560;2022-09-09T10:14:49;2.00;;;0.60;;
13457;SDS011;6801;53.018;11.560;2022-09-09T10:17:25;3.97;;;0.57;;
13457;SDS011;6801;53.018;11.560;2022-09-09T10:20:04;2.80;;;0.70;;
13457;SDS011;6801;53.018;11.560;2022-09-09T10:22:45;2.53;;;0.70;;
13457;SDS011;6801;53.018;11.560;2022-09-09T10:25:24;2.33;;;1.05;;
13457;SDS011;6801;53.018;11.560;2022-09-09T10:28:22;2.50;;;0.68;;
13457;SDS011;6801;53.018;11.560;2022-09-09T10:30:59;3.78;;;0.70;;
13457;SDS011;6801;53.018;11.560;2022-09-09T10:33:36;2.83;;;0.73;;
13457;SDS011;6801;53.018;11.560;2022-09-09T10:36:13;1.70;;;0.70;;
13457;SDS011;6801;53.018;11.560;2022-09-09T10:38:45;4.45;;;0.90;;
13457;SDS011;6801;53.018;11.560;2022-09-09T10:41:16;5.70;;;1.48;;
13457;SDS011;6801;53.018;11.560;2022-09-09T10:44:00;2.70;;;0.90;;
13457;SDS011;6801;53.018;11.560;2022-09-09T10:46:39;4.20;;;0.98;;
13457;SDS011;6801;53.018;11.560;2022-09-09T10:49:29;4.30;;;0.95;;
13457;SDS011;6801;53.018;11.560;2022-09-09T10:52:12;4.00;;;0.73;;
13457;SDS011;6801;53.018;11.560;2022-09-09T10:54:45;4.18;;;0.73;;
13457;SDS011;6801;53.018;11.560;2022-09-09T10:57:25;4.80;;;0.80;;
13457;SDS011;6801;53.018;11.560;2022-09-09T10:59:58;3.95;;;1.25;;
13457;SDS011;6801;53.018;11.560;2022-09-09T11:02:30;6.65;;;1.02;;
13457;SDS011;6801;53.018;11.560;2022-09-09T11:04:59;2.15;;;0.90;;
13457;SDS011;6801;53.018;11.560;2022-09-09T11:07:32;4.63;;;1.00;;
13457;SDS011;6801;53.018;11.560;2022-09-09T11:10:04;3.35;;;0.80;;
13457;SDS011;6801;53.018;11.560;2022-09-09T11:12:40;2.97;;;0.90;;
13457;SDS011;6801;53.018;11.560;2022-09-09T11:15:13;3.10;;;0.70;;
13457;SDS011;6801;53.018;11.560;2022-09-09T11:17:46;4.18;;;0.60;;
13457;SDS011;6801;53.018;11.560;2022-09-09T11:20:16;5.47;;;0.60;;
13457;SDS011;6801;53.018;11.560;2022-09-09T11:22:44;3.72;;;0.80;;
13457;SDS011;6801;53.018;11.560;2022-09-09T11:25:17;2.60;;;0.70;;
13457;SDS011;6801;53.018;11.560;2022-09-09T11:27:58;4.07;;;0.85;;
13457;SDS011;6801;53.018;11.560;2022-09-09T11:30:38;2.42;;;1.00;;
13457;SDS011;6801;53.018;11.560;2022-09-09T11:33:27;2.35;;;0.95;;
13457;SDS011;6801;53.018;11.560;2022-09-09T11:36:06;3.25;;;0.95;;
13457;SDS011;6801;53.018;11.560;2022-09-09T11:38:47;3.28;;;0.60;;
13457;SDS011;6801;53.018;11.560;2022-09-09T11:41:17;2.40;;;0.55;;
13457;SDS011;6801;53.018;11.560;2022-09-09T11:43:47;4.20;;;0.75;;
13457;SDS011;6801;53.018;11.560;2022-09-09T11:46:16;1.80;;;0.60;;
13457;SDS011;6801;53.018;11.560;2022-09-09T11:48:57;3.00;;;0.88;;
13457;SDS011;6801;53.018;11.560;2022-09-09T11:51:26;5.07;;;1.10;;
13457;SDS011;6801;53.018;11.560;2022-09-09T11:53:54;3.17;;;1.08;;
13457;SDS011;6801;53.018;11.560;2022-09-09T11:56:24;2.67;;;0.70;;
13457;SDS011;6801;53.018;11.560;2022-09-09T11:58:56;3.85;;;0.75;;
13457;SDS011;6801;53.018;11.560;2022-09-09T12:07:02;3.72;;;0.90;;
13457;SDS011;6801;53.018;11.560;2022-09-09T12:09:46;2.55;;;1.08;;
13457;SDS011;6801;53.018;11.560;2022-09-09T12:12:27;3.08;;;0.90;;
13457;SDS011;6801;53.018;11.560;2022-09-09T12:14:59;4.97;;;1.15;;
13457;SDS011;6801;53.018;11.560;2022-09-09T12:17:28;6.47;;;1.20;;
13457;SDS011;6801;53.018;11.560;2022-09-09T12:20:00;4.03;;;1.33;;
13457;SDS011;6801;53.018;11.560;2022-09-09T12:22:34;4.45;;;1.10;;
13457;SDS011;6801;53.018;11.560;2022-09-09T12:25:08;5.13;;;1.45;;
13457;SDS011;6801;53.018;11.560;2022-09-09T12:27:43;5.38;;;1.25;;
13457;SDS011;6801;53.018;11.560;2022-09-09T12:30:16;5.53;;;1.20;;
13457;SDS011;6801;53.018;11.560;2022-09-09T12:32:45;4.40;;;1.02;;
13457;SDS011;6801;53.018;11.560;2022-09-09T12:35:13;5.05;;;0.93;;
13457;SDS011;6801;53.018;11.560;2022-09-09T12:37:46;3.90;;;1.10;;
13457;SDS011;6801;53.018;11.560;2022-09-09T12:40:20;2.83;;;0.80;;
13457;SDS011;6801;53.018;11.560;2022-09-09T12:42:48;6.15;;;1.00;;
13457;SDS011;6801;53.018;11.560;2022-09-09T12:45:18;4.57;;;1.10;;
13457;SDS011;6801;53.018;11.560;2022-09-09T12:47:46;6.53;;;1.02;;
13457;SDS011;6801;53.018;11.560;2022-09-09T12:50:19;2.80;;;0.95;;
13457;SDS011;6801;53.018;11.560;2022-09-09T12:52:48;4.05;;;1.25;;
13457;SDS011;6801;53.018;11.560;2022-09-09T12:55:17;6.82;;;1.27;;
13457;SDS011;6801;53.018;11.560;2022-09-09T12:57:46;4.32;;;1.00;;
13457;SDS011;6801;53.018;11.560;2022-09-09T13:00:18;3.28;;;0.70;;
13457;SDS011;6801;53.018;11.560;2022-09-09T13:02:48;4.57;;;1.05;;
13457;SDS011;6801;53.018;11.560;2022-09-09T13:05:18;1.80;;;0.73;;
13457;SDS011;6801;53.018;11.560;2022-09-09T13:07:47;4.50;;;1.08;;
13457;SDS011;6801;53.018;11.560;2022-09-09T13:10:15;8.43;;;1.10;;
13457;SDS011;6801;53.018;11.560;2022-09-09T13:12:47;1.60;;;0.70;;
13457;SDS011;6801;53.018;11.560;2022-09-09T13:15:16;2.88;;;0.98;;
13457;SDS011;6801;53.018;11.560;2022-09-09T13:17:53;4.38;;;1.00;;
13457;SDS011;6801;53.018;11.560;2022-09-09T13:20:22;2.35;;;0.80;;
13457;SDS011;6801;53.018;11.560;2022-09-09T13:22:51;3.10;;;0.70;;
13457;SDS011;6801;53.018;11.560;2022-09-09T13:25:23;3.47;;;0.70;;
13457;SDS011;6801;53.018;11.560;2022-09-09T13:27:54;4.00;;;1.00;;
13457;SDS011;6801;53.018;11.560;2022-09-09T13:30:25;2.60;;;0.98;;
13457;SDS011;6801;53.018;11.560;2022-09-09T13:33:01;6.75;;;1.48;;
13457;SDS011;6801;53.018;11.560;2022-09-09T13:35:30;2.80;;;0.93;;
13457;SDS011;6801;53.018;11.560;2022-09-09T13:37:58;3.85;;;0.70;;
13457;SDS011;6801;53.018;11.560;2022-09-09T13:40:32;2.45;;;0.70;;
13457;SDS011;6801;53.018;11.560;2022-09-09T13:42:59;4.90;;;0.80;;
13457;SDS011;6801;53.018;11.560;2022-09-09T13:45:28;3.20;;;1.00;;
13457;SDS011;6801;53.018;11.560;2022-09-09T13:47:55;3.78;;;0.90;;
13457;SDS011;6801;53.018;11.560;2022-09-09T13:50:23;3.00;;;0.60;;
13457;SDS011;6801;53.018;11.560;2022-09-09T13:52:52;7.75;;;0.90;;
13457;SDS011;6801;53.018;11.560;2022-09-09T13:55:21;1.50;;;0.60;;
13457;SDS011;6801;53.018;11.560;2022-09-09T13:57:50;4.65;;;1.05;;
13457;SDS011;6801;53.018;11.560;2022-09-09T14:00:17;8.73;;;1.35;;
13457;SDS011;6801;53.018;11.560;2022-09-09T14:02:46;3.20;;;1.02;;
13457;SDS011;6801;53.018;11.560;2022-09-09T14:05:13;4.28;;;1.23;;
13457;SDS011;6801;53.018;11.560;2022-09-09T14:07:41;5.00;;;0.73;;
13457;SDS011;6801;53.018;11.560;2022-09-09T14:10:09;1.65;;;0.88;;
13457;SDS011;6801;53.018;11.560;2022-09-09T14:12:36;4.93;;;1.02;;
13457;SDS011;6801;53.018;11.560;2022-09-09T14:15:03;2.50;;;0.50;;
13457;SDS011;6801;53.018;11.560;2022-09-09T14:17:32;3.60;;;0.40;;
13457;SDS011;6801;53.018;11.560;2022-09-09T14:20:03;3.78;;;0.70;;
13457;SDS011;6801;53.018;11.560;2022-09-09T14:22:33;3.55;;;0.50;;
13457;SDS011;6801;53.018;11.560;2022-09-09T14:25:00;2.10;;;0.40;;
13457;SDS011;6801;53.018;11.560;2022-09-09T14:27:28;4.15;;;0.60;;
13457;SDS011;6801;53.018;11.560;2022-09-09T14:29:55;4.20;;;0.60;;
13457;SDS011;6801;53.018;11.560;2022-09-09T14:32:25;3.03;;;0.85;;
13457;SDS011;6801;53.018;11.560;2022-09-09T14:34:52;2.80;;;0.50;;
13457;SDS011;6801;53.018;11.560;2022-09-09T14:37:20;3.03;;;0.50;;
13457;SDS011;6801;53.018;11.560;2022-09-09T14:39:47;3.33;;;0.60;;
13457;SDS011;6801;53.018;11.560;2022-09-09T14:42:16;2.40;;;0.68;;
13457;SDS011;6801;53.018;11.560;2022-09-09T14:44:43;2.95;;;0.50;;
13457;SDS011;6801;53.018;11.560;2022-09-09T14:47:10;3.17;;;0.40;;
13457;SDS011;6801;53.018;11.560;2022-09-09T14:49:38;0.95;;;0.30;;
13457;SDS011;6801;53.018;11.560;2022-09-09T14:52:05;3.50;;;0.70;;
13457;SDS011;6801;53.018;11.560;2022-09-09T14:54:33;2.88;;;0.47;;
13457;SDS011;6801;53.018;11.560;2022-09-09T14:57:00;3.17;;;0.80;;
13457;SDS011;6801;53.018;11.560;2022-09-09T14:59:27;2.28;;;0.70;;
13457;SDS011;6801;53.018;11.560;2022-09-09T15:01:54;2.42;;;0.70;;
13457;SDS011;6801;53.018;11.560;2022-09-09T15:04:21;5.45;;;0.90;;
13457;SDS011;6801;53.018;11.560;2022-09-09T15:06:48;4.78;;;0.60;;
13457;SDS011;6801;53.018;11.560;2022-09-09T15:09:17;2.33;;;1.20;;
13457;SDS011;6801;53.018;11.560;2022-09-09T15:11:45;4.18;;;0.95;;
13457;SDS011;6801;53.018;11.560;2022-09-09T15:14:12;2.85;;;0.90;;
13457;SDS011;6801;53.018;11.560;2022-09-09T15:16:39;6.40;;;0.73;;
13457;SDS011;6801;53.018;11.560;2022-09-09T15:19:07;1.80;;;0.50;;
13457;SDS011;6801;53.018;11.560;2022-09-09T15:21:35;2.67;;;0.80;;
13457;SDS011;6801;53.018;11.560;2022-09-09T15:24:03;2.78;;;0.70;;